LGAVDTTJ

Guest
Details From LGAV - Athens Intl Airport Elefterios Venizel
To DTTJ - Djerba Zarzis
Flight Number -
Tags Generated
Created
Modified
Stats Distance 686 nm / 1,271 km
Max Altitude 0 ft / 0 m
Waypoints 5
Social Downloads 1
Likes 0
Share VATSIM

Download

Looking for another format? Having issues loading an existing format? Contact us
Advertisement - Login to hide

Notes

Generated

Route

LGAV ILL01 LM009 JER DTTJ

ID Type Via Altitude Latitude Longitude Leg Dist Tot Dist Heading (true) Name
O LGAV APT - 0 ft / 0 m 37.92101˚ 23.91920˚ - 0 nm - -
ILL01 FIX - 0 ft / 0 m 36.76667˚ 19.00000˚ 244 nm 244 nm 255° / 252° -
LM009 FIX - 0 ft / 0 m 35.72806˚ 14.62974˚ 220 nm 465 nm 255° / 252° -
JER NDB - 0 ft / 0 m 33.87803˚ 10.77264˚ 220 nm 685 nm 241° / 239° ZARZIS NDB
O DTTJ APT - 0 ft / 0 m 33.87503˚ 10.76034˚ 0 nm 686 nm 254° / 254° -

Altitude Profile

Advertisement - Login to hide

Weather


0- 5 10 15 20 25 30 35+ Temperature / ° C

Clouds and Precipitation
Forecast for 2018-05-25 12:00 UTC. Updated 19 minutes ago

Ground ~20,000 ft ~40,000 ft Winds

LGAV

Details ICAO LGAV (ATH)
Name Athens Intl Airport Elefterios Venizel
Region Greece
Timezone Europe/Athens (UTC+3.0)
Stats Elevation 308 ft / 94 m (AMSL)
Location 37.936357° 23.944470°
Runways 2
Magnetic Variation 4.527° E

METAR

LGAV 250920Z 02017KT 9999 FEW025 SCT035 27/10 Q1011 NOSIG

Decode

TAF

TAF TAF LGAV 250500Z 2506/2606 VRB05KT 9999 FEW030 BECMG 2506/2508 02015KT TEMPO 2506/2515 02015G25KT FEW020 SCT060

Decode

Departure Runways

ID Width Length Bearing (true) Bearing (mag) Surface Threshold Offset Overrun Length
03L 148 ft / 45 m 12,474 ft / 3,802 m 36.51° 31.98° Asphalt 984 ft / 300 m 393 ft / 120 m
03R 148 ft / 45 m 13,131 ft / 4,002 m 36.52° 31.99° Asphalt 984 ft / 300 m 393 ft / 120 m
21L 148 ft / 45 m 13,131 ft / 4,002 m 216.54° 212.01° Asphalt 984 ft / 300 m 393 ft / 120 m
21R 148 ft / 45 m 12,474 ft / 3,802 m 216.53° 212.00° Asphalt 984 ft / 300 m 393 ft / 120 m

DTTJ

Details ICAO DTTJ (DJE)
Name Djerba Zarzis
Region Tunisia
Timezone Africa/Tunis (UTC+1.0)
Stats Elevation 18 ft / 5 m (AMSL)
Location 33.875447° 10.777153°
Runways 1
Magnetic Variation 2.368° E

METAR

DTTJ 250930Z 21006KT 9999 FEW020 28/10 Q1015 NOSIG

Decode

TAF

TAF DTTJ 250500Z 2506/2606 07004KT CAVOK BECMG 2513/2515 08015KT

Decode

Destination Runways

ID Width Length Bearing (true) Bearing (mag) Surface Threshold Offset Overrun Length
09 148 ft / 45 m 10,191 ft / 3,106 m 88.28° 85.91° Asphalt 0 ft / 0 m 197 ft / 60 m
27 148 ft / 45 m 10,191 ft / 3,106 m 268.30° 265.93° Asphalt 0 ft / 0 m 197 ft / 60 m

Approach Navaids

Runway Type Ident Frequency Range Bearing (true) Bearing (mag) Slope Elevation
09 Localiser JAZ 109.50 MHz 18 nm / 33 km 88.31° 85.94° - 18 ft / 5 m (AMSL)
09 Glidescope JAZ 109.50 MHz 10 nm / 19 km 88.29° 85.92° 3.00° 18 ft / 5 m (AMSL)